Time;durP1;ratioP1;P1;durP2;ratioP2;P2;SDS_P1;SDS_P2;PMS_P1;PMS_P2;Temp;Humidity;BMP_temperature;BMP_pressure;BME280_temperature;BME280_humidity;BME280_pressure;Samples;Min_cycle;Max_cycle;Signal;HPM_P1;HPM_P2
2022/09/02 00:01:46;;;;;;;9.43;2.40;;;15.00;71.50;;;13.91;94.00;96120.22;4984034;28;20555;-71
2022/09/02 00:04:16;;;;;;;5.85;2.15;;;15.00;71.30;;;13.91;94.32;96120.22;4982945;28;20037;-70
2022/09/02 00:06:43;;;;;;;4.07;1.80;;;15.00;71.40;;;13.88;92.41;96112.72;4997255;28;20421;-71
2022/09/02 00:09:10;;;;;;;3.13;2.20;;;15.00;71.50;;;13.87;93.46;96119.03;4985445;28;20038;-70
2022/09/02 00:11:36;;;;;;;2.75;2.10;;;15.00;71.40;;;13.83;93.24;96107.25;4983568;28;20043;-70
2022/09/02 00:14:05;;;;;;;4.10;2.00;;;14.90;71.30;;;13.82;94.20;96110.13;4982951;28;20034;-71
2022/09/02 00:16:32;;;;;;;2.85;1.90;;;14.90;71.40;;;13.83;92.55;96111.75;4985185;28;20472;-70
2022/09/02 00:18:58;;;;;;;2.45;1.92;;;14.90;71.20;;;13.77;94.33;96108.88;4977872;28;20125;-70
2022/09/02 00:21:24;;;;;;;3.20;1.88;;;14.80;71.30;;;13.76;94.06;96109.09;4986188;28;20030;-70
2022/09/02 00:23:50;;;;;;;3.95;2.15;;;14.80;71.40;;;13.73;92.88;96106.88;4980530;28;20414;-70
2022/09/02 00:26:16;;;;;;;3.28;2.08;;;14.80;71.70;;;13.71;94.52;96108.91;4984960;28;20141;-71
2022/09/02 00:28:42;;;;;;;5.22;2.10;;;14.80;71.50;;;13.70;93.91;96102.00;4976806;28;20506;-71
2022/09/02 00:31:08;;;;;;;3.33;1.70;;;14.70;71.50;;;13.69;94.74;96105.66;4978263;28;20043;-71
2022/09/02 00:33:34;;;;;;;4.68;2.08;;;14.80;71.80;;;13.69;93.96;96100.38;4988132;28;20060;-70
2022/09/02 00:36:00;;;;;;;4.00;2.05;;;14.80;71.60;;;13.65;93.33;96096.53;4988375;28;20073;-70
2022/09/02 00:38:27;;;;;;;3.20;2.10;;;14.80;71.70;;;13.63;93.36;96098.56;4985202;28;20026;-71
2022/09/02 00:40:53;;;;;;;3.55;2.10;;;14.70;71.60;;;13.64;94.79;96100.19;4983236;28;20034;-72
2022/09/02 00:43:36;;;;;;;3.88;1.85;;;14.70;71.90;;;13.62;96.49;96097.75;4987367;28;20126;-71
2022/09/02 00:46:02;;;;;;;2.72;1.88;;;14.80;71.60;;;13.62;94.57;96094.31;4985999;28;20466;-71
2022/09/02 00:48:28;;;;;;;3.55;2.30;;;14.80;71.60;;;13.60;93.87;96099.81;4986559;28;20061;-71
2022/09/02 00:50:54;;;;;;;3.70;1.70;;;14.70;71.70;;;13.59;95.19;96095.53;5003683;28;20398;-72
2022/09/02 00:53:19;;;;;;;3.03;1.98;;;14.70;72.00;;;13.58;94.81;96098.38;4988683;28;20076;-71
2022/09/02 00:55:47;;;;;;;3.20;1.75;;;14.70;72.00;;;13.57;95.57;96099.38;4988940;28;20070;-71
2022/09/02 00:58:20;;;;;;;2.88;1.90;;;14.70;72.20;;;13.55;95.36;96088.22;4987938;28;21172;-70
2022/09/02 01:00:47;;;;;;;4.00;2.00;;;14.60;72.30;;;13.53;95.71;96095.53;4987328;28;20042;-71
2022/09/02 01:03:17;;;;;;;3.22;2.10;;;14.60;72.20;;;13.48;95.77;96094.34;5000307;28;20050;-71
2022/09/02 01:05:44;;;;;;;4.35;1.90;;;14.60;72.10;;;13.45;95.74;96094.75;4981863;28;20049;-71
2022/09/02 01:08:18;;;;;;;2.75;2.13;;;14.60;72.30;;;13.42;95.30;96089.88;4978694;28;20046;-71
2022/09/02 01:10:45;;;;;;;3.90;2.00;;;14.60;72.30;;;13.39;94.99;96087.66;4986202;28;20059;-71
2022/09/02 01:13:17;;;;;;;2.88;2.10;;;14.50;72.50;;;13.37;97.18;96086.25;4988520;28;20577;-70
2022/09/02 01:15:52;;;;;;;4.07;1.85;;;14.50;72.80;;;13.34;96.70;96084.78;4985620;28;20482;-71
2022/09/02 01:18:24;;;;;;;3.28;2.03;;;14.50;72.80;;;13.33;96.95;96091.09;4980167;28;20085;-71
2022/09/02 01:20:50;;;;;;;3.50;2.10;;;14.50;73.00;;;13.31;95.84;96090.50;4987556;28;20034;-71
2022/09/02 01:23:16;;;;;;;3.05;1.70;;;14.50;73.20;;;13.31;97.25;96089.69;4993069;28;20057;-72
2022/09/02 01:25:42;;;;;;;2.55;2.08;;;14.40;73.20;;;13.29;96.19;96092.53;4985922;28;20570;-71
2022/09/02 01:28:10;;;;;;;4.05;2.45;;;14.40;73.50;;;13.27;97.40;96084.00;4987194;28;20054;-71
2022/09/02 01:30:38;;;;;;;2.80;2.00;;;14.40;73.50;;;13.25;97.42;96093.97;4984352;28;20089;-72
2022/09/02 01:33:04;;;;;;;3.53;2.05;;;14.40;73.70;;;13.24;97.33;96092.34;4984557;28;20041;-72
2022/09/02 01:35:30;;;;;;;5.05;2.47;;;14.40;73.70;;;13.20;97.44;96096.41;4989594;28;20078;-71
2022/09/02 01:37:56;;;;;;;4.20;2.53;;;14.40;73.80;;;13.18;97.87;96080.78;4986219;28;20085;-71
2022/09/02 01:40:23;;;;;;;5.25;2.50;;;14.30;73.90;;;13.16;97.72;96084.63;4987531;28;20579;-71
2022/09/02 01:42:48;;;;;;;2.88;2.35;;;14.30;73.90;;;13.15;99.55;96088.28;4982023;28;20038;-72
2022/09/02 01:45:14;;;;;;;3.88;2.25;;;14.30;74.30;;;13.14;100.00;96084.81;4981180;28;20125;-71
2022/09/02 01:47:40;;;;;;;4.18;2.35;;;14.30;74.30;;;13.11;99.09;96087.03;4986514;28;20141;-72
2022/09/02 01:50:06;;;;;;;3.90;2.38;;;14.30;74.50;;;13.08;98.98;96079.53;4985427;28;20054;-72
2022/09/02 01:52:32;;;;;;;5.75;2.92;;;14.20;74.50;;;13.06;99.92;96071.81;4987073;28;20514;-72
2022/09/02 01:54:58;;;;;;;3.08;2.72;;;14.20;74.70;;;13.02;100.00;96072.44;4985270;28;20051;-72
2022/09/02 01:57:23;;;;;;;4.82;2.90;;;14.10;74.80;;;12.99;100.00;96072.84;4970423;28;20038;-71
2022/09/02 01:59:51;;;;;;;5.32;2.90;;;14.10;75.00;;;12.95;100.00;96071.63;4985738;28;20065;-72
2022/09/02 02:02:18;;;;;;;6.50;3.05;;;14.10;75.20;;;12.92;100.00;96066.78;4987127;28;20434;-71
2022/09/02 02:04:45;;;;;;;3.40;2.70;;;14.00;75.40;;;12.91;100.00;96065.16;4981900;28;20038;-72
2022/09/02 02:07:13;;;;;;;5.90;3.08;;;14.10;75.50;;;12.86;100.00;96068.38;4988220;28;20038;-72
2022/09/02 02:09:39;;;;;;;3.75;3.10;;;14.00;75.60;;;12.85;100.00;96067.56;4983895;28;20604;-71
2022/09/02 02:12:06;;;;;;;4.47;3.20;;;14.00;75.60;;;12.84;100.00;96065.94;4984879;28;20061;-71
2022/09/02 02:14:32;;;;;;;6.00;3.28;;;14.00;76.00;;;12.84;100.00;96065.13;4971454;28;20088;-72
2022/09/02 02:16:58;;;;;;;3.72;2.90;;;14.00;75.90;;;12.83;100.00;96077.50;4996873;28;20510;-72
2022/09/02 02:19:23;;;;;;;3.42;3.08;;;14.00;76.00;;;12.83;100.00;96063.50;4989162;28;20097;-72
2022/09/02 02:21:49;;;;;;;6.95;3.58;;;14.00;76.00;;;12.82;100.00;96067.16;4981913;28;20424;-72
2022/09/02 02:24:15;;;;;;;4.03;3.15;;;14.00;76.20;;;12.81;100.00;96060.25;4986674;28;20563;-71
2022/09/02 02:26:41;;;;;;;7.20;3.67;;;14.00;76.20;;;12.79;100.00;96052.53;4987586;28;20096;-72
2022/09/02 02:29:07;;;;;;;6.13;3.13;;;13.90;76.20;;;12.77;100.00;96059.84;4985207;28;20046;-71
2022/09/02 02:31:32;;;;;;;5.80;3.28;;;13.90;76.10;;;12.73;100.00;96050.72;4990517;28;20034;-71
2022/09/02 02:33:58;;;;;;;3.47;3.00;;;13.90;76.10;;;12.68;100.00;96052.34;4990920;28;20142;-71
2022/09/02 02:36:24;;;;;;;5.45;3.50;;;13.80;75.90;;;12.64;100.00;96059.03;4989863;28;20117;-72
2022/09/02 02:38:50;;;;;;;6.97;4.00;;;13.80;75.60;;;12.57;100.00;96053.75;4983428;28;20121;-72
2022/09/02 02:41:16;;;;;;;6.53;3.30;;;13.70;75.80;;;12.55;100.00;96061.06;4974077;28;20035;-72
2022/09/02 02:43:42;;;;;;;6.97;3.30;;;13.60;75.70;;;12.49;100.00;96053.97;4986399;28;20122;-72
2022/09/02 02:46:08;;;;;;;4.20;3.80;;;13.60;76.00;;;12.44;100.00;96059.81;4981991;28;20080;-71
2022/09/02 02:48:35;;;;;;;4.25;3.55;;;13.60;76.30;;;12.43;100.00;96054.75;4978024;28;20402;-72
2022/09/02 02:51:01;;;;;;;4.00;3.30;;;13.60;76.50;;;12.40;100.00;96049.88;4983184;28;21540;-71
2022/09/02 02:53:28;;;;;;;5.18;3.58;;;13.60;76.60;;;12.36;100.00;96054.75;4987068;28;20030;-71
2022/09/02 02:55:54;;;;;;;5.57;3.75;;;13.60;76.70;;;12.35;100.00;96044.41;4986645;28;20048;-70
2022/09/02 02:58:20;;;;;;;5.43;3.30;;;13.50;76.80;;;12.34;100.00;96045.41;4985327;28;20034;-71
2022/09/02 03:00:46;;;;;;;5.68;3.15;;;13.60;77.00;;;12.33;100.00;96035.88;4999062;28;20443;-71
2022/09/02 03:03:18;;;;;;;6.15;3.70;;;13.50;77.00;;;12.32;100.00;96037.72;4985828;28;20054;-70
2022/09/02 03:05:44;;;;;;;4.32;3.50;;;13.50;77.20;;;12.30;100.00;96036.28;4986455;28;20041;-70
2022/09/02 03:08:10;;;;;;;6.30;3.55;;;13.50;77.30;;;12.29;100.00;96034.66;4984491;28;20035;-70
2022/09/02 03:10:37;;;;;;;4.47;3.33;;;13.50;77.40;;;12.27;100.00;96034.88;4987160;28;20096;-71
2022/09/02 03:13:03;;;;;;;4.78;3.55;;;13.50;77.50;;;12.27;100.00;96032.22;4984784;28;20042;-71
2022/09/02 03:15:29;;;;;;;7.03;4.00;;;13.50;77.60;;;12.26;100.00;96038.53;4977082;28;20122;-70
2022/09/02 03:17:55;;;;;;;4.70;3.40;;;13.40;77.80;;;12.25;100.00;96035.06;4996068;28;20056;-71
2022/09/02 03:20:21;;;;;;;5.78;3.72;;;13.50;77.90;;;12.24;100.00;96036.09;4969643;28;20043;-71
2022/09/02 03:22:46;;;;;;;7.00;3.70;;;13.50;77.70;;;12.23;100.00;96029.19;4986836;28;20053;-71
2022/09/02 03:25:15;;;;;;;4.35;3.55;;;13.50;77.80;;;12.25;100.00;96023.72;4982462;28;20039;-71
2022/09/02 03:27:41;;;;;;;4.22;3.13;;;13.50;77.80;;;12.24;100.00;96033.44;4987312;28;20023;-71
2022/09/02 03:30:09;;;;;;;4.43;3.55;;;13.50;77.70;;;12.24;100.00;96028.16;4987534;28;20535;-71
2022/09/02 03:32:34;;;;;;;5.35;3.53;;;13.40;77.80;;;12.23;100.00;96023.91;4987468;28;20061;-70
2022/09/02 03:35:02;;;;;;;6.55;3.33;;;13.50;77.80;;;12.21;100.00;96022.47;4984028;28;20031;-70
2022/09/02 03:37:28;;;;;;;4.65;3.40;;;13.50;77.70;;;12.21;100.00;96022.47;4995628;28;20688;-71
2022/09/02 03:39:54;;;;;;;5.60;3.17;;;13.40;77.80;;;12.18;100.00;96018.41;4985942;28;20030;-71
2022/09/02 03:42:19;;;;;;;3.92;3.45;;;13.40;77.90;;;12.18;100.00;96018.41;4989505;28;20054;-70
2022/09/02 03:44:46;;;;;;;4.90;3.20;;;13.40;77.90;;;12.17;100.00;96021.25;4990249;28;20113;-70
2022/09/02 03:47:13;;;;;;;5.32;3.33;;;13.30;78.00;;;12.13;100.00;96030.56;4988343;28;20514;-70
2022/09/02 03:49:39;;;;;;;4.63;3.40;;;13.30;78.20;;;12.11;100.00;96030.78;4989986;28;20034;-70
2022/09/02 03:52:05;;;;;;;5.72;3.63;;;13.30;78.20;;;12.10;100.00;96026.50;4988868;28;20117;-70
2022/09/02 03:54:31;;;;;;;4.20;3.40;;;13.30;78.20;;;12.09;100.00;96035.44;4997805;28;20639;-70
2022/09/02 03:56:57;;;;;;;5.97;3.42;;;13.30;78.30;;;12.08;100.00;96025.91;4988171;28;20116;-71
2022/09/02 03:59:23;;;;;;;7.85;3.80;;;13.30;78.30;;;12.06;100.00;96020.03;4981877;28;20080;-70
2022/09/02 04:01:50;;;;;;;4.15;3.47;;;13.30;78.20;;;12.05;100.00;96028.13;4997650;28;20033;-72
2022/09/02 04:04:17;;;;;;;6.80;3.58;;;13.30;78.30;;;12.04;100.00;96029.97;4994924;28;20375;-71
2022/09/02 04:06:43;;;;;;;4.15;3.50;;;13.30;78.40;;;12.04;100.00;96024.69;4973165;28;20041;-71
2022/09/02 04:09:09;;;;;;;6.65;3.92;;;13.30;78.50;;;12.04;100.00;96014.13;4977983;28;20540;-71
2022/09/02 04:11:36;;;;;;;5.18;3.55;;;13.30;78.50;;;12.03;100.00;96020.44;4983386;28;20577;-71
2022/09/02 04:14:01;;;;;;;4.32;3.10;;;13.30;78.40;;;12.04;100.00;96022.03;4986657;28;20038;-72
2022/09/02 04:16:27;;;;;;;5.97;3.92;;;13.30;78.40;;;12.05;100.00;96017.59;4989391;28;20517;-72
2022/09/02 04:18:55;;;;;;;5.85;3.50;;;13.20;78.50;;;12.02;100.00;96016.16;4989478;28;20185;-71
2022/09/02 04:21:22;;;;;;;4.57;3.40;;;13.30;78.30;;;12.02;100.00;96024.06;4990161;28;20058;-71
2022/09/02 04:23:48;;;;;;;6.20;3.40;;;13.20;78.40;;;12.01;100.00;96024.28;4990691;28;20034;-71
2022/09/02 04:26:15;;;;;;;6.80;3.65;;;13.20;78.40;;;12.01;100.00;96026.91;4989402;28;20126;-72
2022/09/02 04:28:41;;;;;;;4.20;3.35;;;13.20;78.40;;;11.98;100.00;96022.00;4990539;28;20041;-70
2022/09/02 04:31:09;;;;;;;3.75;3.35;;;13.20;78.40;;;11.94;100.00;96032.16;4987446;28;20117;-70
2022/09/02 04:33:35;;;;;;;4.70;3.55;;;13.20;78.50;;;11.92;100.00;96034.97;4988834;28;20035;-70
2022/09/02 04:36:07;;;;;;;6.63;3.90;;;13.10;78.60;;;11.93;100.00;96030.53;4988020;28;20041;-71
2022/09/02 04:38:33;;;;;;;5.38;3.58;;;13.10;78.60;;;11.91;100.00;96029.91;4990343;28;20034;-70
2022/09/02 04:40:59;;;;;;;6.47;3.83;;;13.10;78.60;;;11.91;100.00;96025.44;4990150;28;20167;-70
2022/09/02 04:43:24;;;;;;;6.38;3.83;;;13.10;78.80;;;11.91;100.00;96029.91;4989748;28;20133;-71
2022/09/02 04:45:51;;;;;;;5.13;3.47;;;13.10;78.70;;;11.90;100.00;96023.00;4989372;28;20129;-72
2022/09/02 04:48:21;;;;;;;5.95;3.65;;;13.10;78.70;;;11.87;100.00;96020.78;4986737;28;20054;-71
2022/09/02 04:50:47;;;;;;;7.87;3.87;;;13.10;78.70;;;11.87;100.00;96031.31;4988931;28;20031;-71
2022/09/02 04:53:13;;;;;;;6.25;3.58;;;13.10;78.70;;;11.88;100.00;96027.69;4986112;28;20722;-71
2022/09/02 04:55:40;;;;;;;7.55;3.80;;;13.10;78.80;;;11.88;100.00;96027.69;5000054;28;20140;-71
2022/09/02 04:58:06;;;;;;;7.28;3.47;;;13.20;78.70;;;11.88;100.00;96038.22;4986646;28;20038;-71
2022/09/02 05:00:32;;;;;;;5.60;3.42;;;13.10;78.70;;;11.88;100.00;96035.59;4988181;28;20034;-71
2022/09/02 05:02:58;;;;;;;5.85;3.67;;;13.10;78.80;;;11.90;100.00;96030.94;5003899;28;20089;-72
2022/09/02 05:05:24;;;;;;;4.22;3.25;;;13.20;78.60;;;11.89;100.00;96035.38;4989032;28;20574;-70
2022/09/02 05:07:50;;;;;;;5.60;3.63;;;13.20;78.50;;;11.88;100.00;96027.69;4988844;28;20038;-70
2022/09/02 05:10:16;;;;;;;5.35;3.45;;;13.20;78.70;;;11.90;100.00;96036.19;4987241;28;20046;-71
2022/09/02 05:12:42;;;;;;;5.00;3.30;;;13.20;78.50;;;11.91;100.00;96032.53;4985988;28;20046;-71
2022/09/02 05:15:09;;;;;;;4.97;3.75;;;13.20;78.70;;;11.91;100.00;96040.44;4986447;28;20130;-71
2022/09/02 05:17:35;;;;;;;6.93;3.45;;;13.20;78.50;;;11.92;100.00;96040.25;4988911;28;20030;-71
2022/09/02 05:20:05;;;;;;;5.25;3.38;;;13.30;78.50;;;11.94;100.00;96042.69;4986376;28;20081;-72
2022/09/02 05:22:32;;;;;;;5.10;3.27;;;13.30;78.40;;;11.96;100.00;96043.31;4986499;28;20034;-65
2022/09/02 05:24:57;;;;;;;4.45;3.03;;;13.40;78.50;;;11.98;100.00;96038.63;4969492;28;20372;-67
2022/09/02 05:27:24;;;;;;;6.38;3.22;;;13.40;78.50;;;12.03;100.00;96040.69;4989449;28;20035;-72
2022/09/02 05:29:49;;;;;;;4.40;3.30;;;13.40;78.40;;;12.07;100.00;96040.09;4989038;28;20049;-65
2022/09/02 05:32:15;;;;;;;5.40;3.00;;;13.50;78.30;;;12.11;100.00;96032.59;4987334;28;20039;-65
2022/09/02 05:34:41;;;;;;;5.85;3.28;;;13.50;78.00;;;12.15;100.00;96034.63;4989139;28;20422;-66
2022/09/02 05:37:07;;;;;;;4.95;3.67;;;13.60;77.80;;;12.19;100.00;96037.66;4985955;28;20042;-65
2022/09/02 05:39:33;;;;;;;5.28;3.17;;;13.60;77.70;;;12.21;100.00;96028.53;5001916;28;20056;-66
2022/09/02 05:41:59;;;;;;;4.00;2.95;;;13.70;77.60;;;12.26;100.00;96034.06;4985837;28;20034;-65
2022/09/02 05:44:25;;;;;;;4.05;2.95;;;13.80;77.40;;;12.35;100.00;96033.84;4985979;28;20062;-70
2022/09/02 05:46:51;;;;;;;5.38;3.00;;;13.90;77.20;;;12.44;100.00;96041.34;4984760;28;20113;-71
2022/09/02 05:49:16;;;;;;;5.88;3.22;;;14.00;76.30;;;12.49;100.00;96036.31;4985640;28;20061;-72
2022/09/02 05:51:51;;;;;;;5.97;3.20;;;14.10;76.10;;;12.56;100.00;96041.59;5004539;28;20121;-71
2022/09/02 05:54:43;;;;;;;4.80;3.35;;;14.10;76.00;;;12.63;100.00;96031.84;4987793;28;20082;-72
2022/09/02 05:57:12;;;;;;;4.82;3.15;;;14.10;75.70;;;12.65;100.00;96043.00;4984005;28;20047;-71
2022/09/02 05:59:41;;;;;;;4.10;2.65;;;14.20;75.60;;;12.72;100.00;96041.19;4988115;28;20034;-71
2022/09/02 06:02:08;;;;;;;5.65;2.90;;;14.30;75.40;;;12.80;100.00;96035.69;4986347;28;20501;-71
2022/09/02 06:04:39;;;;;;;5.32;3.20;;;14.40;75.10;;;12.84;100.00;96036.91;4990051;28;20038;-71
2022/09/02 06:07:05;;;;;;;;;;;14.40;74.80;;;12.89;100.00;96031.81;4988676;28;20054;-72
2022/09/02 06:09:31;;;;;;;5.70;3.05;;;14.50;74.70;;;12.95;100.00;96035.47;4988026;28;19922;-71
2022/09/02 06:11:57;;;;;;;7.20;2.92;;;14.50;74.40;;;13.00;100.00;96040.94;4988189;28;20054;-71
2022/09/02 06:14:26;;;;;;;6.43;2.83;;;14.60;74.10;;;13.05;100.00;96045.63;4988659;28;20035;-71
2022/09/02 06:16:53;;;;;;;5.47;2.80;;;14.60;74.20;;;13.10;100.00;96037.88;4989373;28;20035;-71
2022/09/02 06:19:19;;;;;;;4.45;2.70;;;14.60;74.10;;;13.17;100.00;96038.69;4986185;28;20562;-70
2022/09/02 06:21:46;;;;;;;6.88;2.80;;;14.70;74.20;;;13.24;100.00;96030.78;4986827;28;20042;-71
2022/09/02 06:24:12;;;;;;;5.15;2.78;;;14.70;73.70;;;13.27;100.00;96033.00;4987726;28;20038;-71
2022/09/02 06:26:38;;;;;;;5.10;2.85;;;14.80;73.60;;;13.32;100.00;96028.72;4986657;28;20105;-70
2022/09/02 06:29:04;;;;;;;4.07;2.60;;;14.90;73.90;;;13.35;100.00;96025.69;4979622;28;20061;-71
2022/09/02 06:31:30;;;;;;;4.13;2.55;;;14.90;73.80;;;13.42;100.00;96021.19;4955654;28;20050;-74
2022/09/02 06:33:56;;;;;;;4.88;2.70;;;15.00;73.50;;;13.48;100.00;96028.28;4970103;28;20050;-74
2022/09/02 06:36:24;;;;;;;3.97;2.40;;;15.00;73.50;;;13.56;100.00;96026.41;5000622;28;20042;-67
2022/09/02 06:38:51;;;;;;;4.90;2.40;;;15.10;73.30;;;13.61;100.00;96021.31;5003367;28;20088;-67
2022/09/02 06:41:25;;;;;;;4.15;2.20;;;15.10;72.20;;;13.65;100.00;96025.16;4968702;28;20501;-66
2022/09/02 06:43:51;;;;;;;3.42;2.38;;;15.20;72.40;;;13.72;100.00;96023.31;4984053;28;20033;-66
2022/09/02 06:46:20;;;;;;;3.15;2.15;;;15.30;72.90;;;13.79;100.00;96021.44;4986000;28;20106;-68
2022/09/02 06:48:48;;;;;;;3.20;2.05;;;15.40;72.50;;;13.89;100.00;96016.50;4986516;28;20034;-66
2022/09/02 06:51:26;;;;;;;4.18;2.35;;;15.50;71.30;;;13.98;100.00;96025.00;4980658;28;20059;-67
2022/09/02 06:53:52;;;;;;;4.57;2.45;;;15.60;70.90;;;14.04;100.00;96024.97;4959545;28;20387;-76
2022/09/02 06:56:17;;;;;;;3.83;2.17;;;15.60;70.80;;;14.14;100.00;96032.44;4975010;28;20050;-67
2022/09/02 06:58:43;;;;;;;5.80;2.13;;;15.80;71.20;;;14.25;100.00;96020.34;4982483;28;20052;-67
2022/09/02 07:01:12;;;;;;;7.95;2.55;;;15.90;71.00;;;14.37;100.00;96021.31;4985917;28;20046;-71
2022/09/02 07:06:24;;;;;;;5.32;2.10;;;16.20;69.30;;;14.63;100.00;96018.50;5000593;28;20042;-74
2022/09/02 07:08:50;;;;;;;4.25;2.17;;;16.40;69.30;;;14.79;100.00;96021.63;4988953;28;20129;-72
2022/09/02 07:11:21;;;;;;;4.55;2.33;;;16.60;68.60;;;14.95;99.09;96026.38;5023269;28;20033;-73
2022/09/02 07:13:48;;;;;;;3.75;2.00;;;16.80;67.90;;;15.09;98.15;96021.75;5008204;28;20207;-74
2022/09/02 07:16:14;;;;;;;3.40;1.92;;;16.90;67.30;;;15.25;98.24;96027.31;5015858;28;20035;-74
2022/09/02 07:18:39;;;;;;;4.45;1.98;;;17.10;66.40;;;15.42;96.18;96024.06;5000928;28;20033;-74
2022/09/02 07:21:09;;;;;;;3.47;1.98;;;17.30;65.10;;;15.60;95.30;96024.09;5007255;28;20112;-73
2022/09/02 07:23:34;;;;;;;5.05;1.95;;;17.60;65.00;;;15.77;95.59;96025.09;5005767;28;20037;-74
2022/09/02 07:26:00;;;;;;;4.22;1.65;;;17.80;65.40;;;15.98;96.01;96021.16;4981109;28;20126;-73
2022/09/02 07:28:26;;;;;;;5.32;1.75;;;18.10;65.10;;;16.20;94.39;96029.44;4988043;28;20034;-74
2022/09/02 07:30:54;;;;;;;3.85;1.85;;;18.40;63.40;;;16.37;92.84;96022.47;4974250;28;20543;-74
2022/09/02 07:33:20;;;;;;;6.60;1.98;;;18.50;62.00;;;16.58;92.29;96020.31;4970593;28;20494;-74
2022/09/02 07:35:45;;;;;;;4.45;1.67;;;18.70;62.00;;;16.79;90.65;96025.13;4989706;28;20511;-74
2022/09/02 07:38:11;;;;;;;4.35;1.75;;;19.00;60.90;;;17.00;89.07;96019.25;4989118;28;20041;-74
2022/09/02 07:40:38;;;;;;;2.60;1.42;;;19.20;59.30;;;17.24;87.80;96024.56;4983846;28;20039;-73
2022/09/02 07:43:05;;;;;;;2.60;1.55;;;19.50;58.90;;;17.46;87.37;96017.59;4980848;28;20031;-73
2022/09/02 07:45:31;;;;;;;4.55;1.50;;;19.70;58.50;;;17.65;85.95;96016.41;5000816;28;20039;-73
2022/09/02 07:47:57;;;;;;;5.13;1.63;;;19.90;57.60;;;17.91;85.40;96019.59;4987579;28;20104;-73
2022/09/02 07:50:25;;;;;;;2.97;1.40;;;20.10;57.70;;;18.10;84.26;96013.00;4984918;28;20042;-74
2022/09/02 07:52:56;;;;;;;3.92;1.70;;;20.40;57.00;;;18.32;82.76;96016.63;4969608;28;20046;-73
2022/09/02 07:55:22;;;;;;;2.55;1.40;;;20.60;54.80;;;18.53;82.30;96016.97;4999430;28;20069;-71
2022/09/02 07:57:48;;;;;;;1.88;1.23;;;20.80;54.70;;;18.74;81.47;96018.94;4964384;28;20523;-71
2022/09/02 08:00:15;;;;;;;4.30;1.45;;;21.10;54.10;;;18.90;79.57;96018.16;4968244;28;20162;-73
2022/09/02 08:02:41;;;;;;;2.08;1.20;;;21.10;52.50;;;19.11;79.79;96010.47;4969972;28;20033;-72
2022/09/02 08:05:07;;;;;;;2.35;1.20;;;21.50;53.20;;;19.35;78.15;96022.53;4965551;28;20035;-73
2022/09/02 08:07:33;;;;;;;4.32;1.48;;;21.70;51.70;;;19.53;76.69;96019.63;4986555;28;20084;-74
2022/09/02 08:09:59;;;;;;;3.00;1.38;;;21.90;49.90;;;19.74;74.96;96017.22;5000548;28;20410;-72
2022/09/02 08:12:27;;;;;;;2.97;1.10;;;22.10;49.50;;;19.89;73.59;96014.72;4984118;28;20042;-72
2022/09/02 08:14:52;;;;;;;3.35;1.20;;;22.30;49.30;;;20.10;72.93;96018.41;4986979;28;20027;-73
2022/09/02 08:17:18;;;;;;;2.92;1.30;;;22.50;48.60;;;20.29;71.86;96021.56;4985610;28;20180;-72
2022/09/02 08:19:44;;;;;;;5.18;1.20;;;22.70;48.00;;;20.48;70.24;96015.63;4985448;28;20109;-70
2022/09/02 08:22:10;;;;;;;5.10;1.10;;;22.80;47.40;;;20.63;69.59;96012.31;4972377;28;20550;-72
2022/09/02 08:24:35;;;;;;;4.45;1.27;;;22.90;46.80;;;20.83;69.03;96008.19;4966189;28;20442;-70
2022/09/02 08:27:01;;;;;;;2.30;1.02;;;23.20;46.30;;;21.05;68.42;96011.56;4983635;28;20073;-73
2022/09/02 08:29:27;;;;;;;2.30;1.08;;;23.50;46.50;;;21.26;67.61;96004.47;4986025;28;21145;-74
2022/09/02 08:31:53;;;;;;;2.10;1.10;;;23.70;45.30;;;21.43;65.96;96002.44;4982784;28;20058;-74
2022/09/02 08:34:18;;;;;;;4.18;0.90;;;23.80;44.30;;;21.53;65.00;96015.09;4965920;28;20125;-66
2022/09/02 08:36:44;;;;;;;5.05;1.25;;;23.70;43.10;;;21.70;63.87;96010.34;4983270;28;20034;-65
2022/09/02 08:39:10;;;;;;;2.95;0.93;;;24.10;42.80;;;21.90;62.37;95998.91;4986038;28;20406;-65
2022/09/02 08:41:58;;;;;;;3.78;1.48;;;24.40;42.70;;;22.08;56.30;95997.66;4963649;28;20031;-65
2022/09/02 08:44:24;;;;;;;5.43;1.02;;;24.40;40.80;;;22.19;59.37;95988.59;4975452;28;20054;-64
2022/09/02 08:46:52;;;;;;;3.97;0.90;;;24.50;40.40;;;22.34;58.79;95985.91;4986626;28;20089;-64
2022/09/02 08:49:33;;;;;;;2.35;1.00;;;24.60;39.80;;;22.50;53.96;95984.88;4900181;22;20069;-68
2022/09/02 08:52:01;;;;;;;2.67;0.95;;;24.80;39.90;;;22.69;56.66;95985.16;4970833;28;20038;-64
2022/09/02 08:54:42;;;;;;;1.98;0.80;;;25.10;39.40;;;22.95;52.60;95983.28;4964681;28;20053;-67
2022/09/02 08:57:09;;;;;;;3.40;0.70;;;25.30;39.20;;;23.13;55.93;95977.38;4984832;28;20045;-67
2022/09/02 08:59:35;;;;;;;2.40;0.70;;;25.60;38.30;;;23.27;53.44;95982.97;4942776;28;20062;-67
2022/09/02 09:02:31;;;;;;;3.22;1.08;;;25.60;37.00;;;23.39;48.03;95974.63;4937822;28;20070;-67
2022/09/02 09:05:19;;;;;;;2.22;0.95;;;25.60;36.30;;;23.64;48.96;95979.13;4965890;28;20518;-67
2022/09/02 09:08:11;;;;;;;2.17;0.80;;;26.10;36.70;;;23.87;46.64;95975.81;4928390;28;20038;-67
2022/09/02 09:11:00;;;;;;;3.35;0.82;;;26.30;35.70;;;24.02;47.09;95983.81;4970747;28;20038;-67
2022/09/02 09:14:03;;;;;;;1.58;0.90;;;26.40;35.10;;;24.24;44.66;95969.97;4961476;28;20038;-67
2022/09/02 09:16:47;;;;;;;1.35;0.70;;;26.50;34.60;;;24.40;48.89;95974.19;4951536;28;20050;-66
2022/09/02 09:19:15;;;;;;;2.75;0.90;;;26.60;33.50;;;24.64;46.92;95978.84;4962137;28;20059;-67
2022/09/02 09:21:41;;;;;;;2.05;0.90;;;27.00;33.90;;;24.83;47.03;95960.16;4952623;28;20062;-67
2022/09/02 09:24:25;;;;;;;2.65;0.80;;;27.20;34.00;;;25.05;43.25;95971.28;4953106;28;20114;-67
2022/09/02 09:26:52;;;;;;;2.88;0.80;;;27.30;33.40;;;25.31;45.63;95964.53;4946120;28;20043;-67
2022/09/02 09:29:18;;;;;;;1.73;0.77;;;27.70;32.90;;;25.61;45.58;95971.50;4929348;28;20036;-67
2022/09/02 09:31:44;;;;;;;2.20;0.95;;;28.10;33.70;;;25.87;44.52;95963.94;4955544;28;20494;-67
2022/09/02 09:34:13;;;;;;;2.38;0.90;;;28.30;31.50;;;26.18;41.71;95958.13;4936929;28;20043;-67
2022/09/02 09:36:46;;;;;;;1.00;0.70;;;28.70;31.40;;;26.37;40.01;95953.56;4968443;28;20035;-67
2022/09/02 09:39:29;;;;;;;1.35;0.63;;;28.80;30.30;;;26.64;37.90;95942.06;4965501;28;20038;-67
2022/09/02 09:41:56;;;;;;;3.22;0.70;;;29.10;29.50;;;26.91;40.24;95946.75;4951270;28;20031;-67
2022/09/02 09:44:44;;;;;;;1.27;0.70;;;29.40;27.80;;;27.11;35.58;95937.53;4952710;28;20035;-67
2022/09/02 09:47:24;;;;;;;1.42;0.95;;;29.50;28.30;;;27.33;36.84;95956.56;4982827;28;20043;-70
2022/09/02 09:49:52;;;;;;;2.88;0.80;;;29.70;28.20;;;27.50;37.92;95941.66;4970885;28;20035;-68
2022/09/02 09:52:26;;;;;;;1.85;0.77;;;29.90;26.90;;;27.73;35.52;95933.38;4953235;28;20035;-70
2022/09/02 09:55:11;;;;;;;2.03;0.68;;;30.20;27.80;;;27.95;34.82;95940.75;4969391;28;20062;-67
2022/09/02 09:57:39;;;;;;;2.03;0.68;;;30.40;27.90;;;28.09;37.64;95934.53;4958123;28;20035;-71
2022/09/02 10:00:26;;;;;;;1.20;0.60;;;30.50;27.60;;;28.34;34.30;95936.69;4948621;28;20042;-70
2022/09/02 10:02:54;;;;;;;2.85;0.70;;;30.80;27.40;;;28.48;35.39;95931.19;4948740;28;20086;-68
2022/09/02 10:05:25;;;;;;;2.60;0.70;;;31.00;26.30;;;28.66;34.36;95933.72;4957694;28;20090;-69
2022/09/02 10:08:03;;;;;;;2.92;0.80;;;31.40;27.10;;;28.81;33.79;95929.06;4966863;28;20559;-69
2022/09/02 10:10:30;;;;;;;1.85;0.65;;;31.50;26.20;;;29.00;35.26;95932.38;4940949;28;20027;-68
2022/09/02 10:13:00;;;;;;;2.38;0.50;;;31.90;25.60;;;29.08;34.24;95933.53;4954705;28;20026;-68
2022/09/02 10:15:39;;;;;;;2.95;0.60;;;32.10;26.40;;;29.36;32.59;95928.72;4954566;28;20049;-68
2022/09/02 10:18:19;;;;;;;4.35;0.63;;;32.40;25.20;;;29.56;31.97;95917.34;4931043;28;20046;-68
2022/09/02 10:21:19;;;;;;;1.13;0.50;;;32.80;25.00;;;29.76;31.34;95922.19;4955074;28;20522;-67
2022/09/02 10:24:07;;;;;;;4.68;0.60;;;33.20;24.40;;;29.86;32.89;95921.88;4961382;28;20118;-68